sensor_id;sensor_type;location;lat;lon;timestamp;temperature;humidity
27890;DHT22;15238;49.082;9.102;2022-12-04T00:00:30;2.10;99.90
27890;DHT22;15238;49.082;9.102;2022-12-04T00:02:31;2.10;99.90
27890;DHT22;15238;49.082;9.102;2022-12-04T00:04:31;2.10;99.90
27890;DHT22;15238;49.082;9.102;2022-12-04T00:06:32;2.10;99.90
27890;DHT22;15238;49.082;9.102;2022-12-04T00:08:36;2.10;99.90
27890;DHT22;15238;49.082;9.102;2022-12-04T00:10:41;2.10;99.90
27890;DHT22;15238;49.082;9.102;2022-12-04T00:12:42;2.10;99.90
27890;DHT22;15238;49.082;9.102;2022-12-04T00:14:43;2.10;99.90
27890;DHT22;15238;49.082;9.102;2022-12-04T00:16:43;2.10;99.90
27890;DHT22;15238;49.082;9.102;2022-12-04T00:18:44;2.10;99.90
27890;DHT22;15238;49.082;9.102;2022-12-04T00:20:45;2.10;99.90
27890;DHT22;15238;49.082;9.102;2022-12-04T00:22:45;2.10;99.90
27890;DHT22;15238;49.082;9.102;2022-12-04T00:24:46;2.10;99.90
27890;DHT22;15238;49.082;9.102;2022-12-04T00:26:46;2.20;99.90
27890;DHT22;15238;49.082;9.102;2022-12-04T00:28:48;2.20;99.90
27890;DHT22;15238;49.082;9.102;2022-12-04T00:30:49;2.10;99.90
27890;DHT22;15238;49.082;9.102;2022-12-04T00:32:49;2.10;99.90
27890;DHT22;15238;49.082;9.102;2022-12-04T00:34:53;2.10;99.90
27890;DHT22;15238;49.082;9.102;2022-12-04T00:36:53;2.10;99.90
27890;DHT22;15238;49.082;9.102;2022-12-04T00:38:54;2.10;99.90
27890;DHT22;15238;49.082;9.102;2022-12-04T00:40:55;2.10;99.90
27890;DHT22;15238;49.082;9.102;2022-12-04T00:42:56;2.10;99.90
27890;DHT22;15238;49.082;9.102;2022-12-04T00:44:56;2.20;99.90
27890;DHT22;15238;49.082;9.102;2022-12-04T00:46:57;2.20;99.90
27890;DHT22;15238;49.082;9.102;2022-12-04T00:48:57;2.20;99.90
27890;DHT22;15238;49.082;9.102;2022-12-04T00:51:16;2.20;99.90
27890;DHT22;15238;49.082;9.102;2022-12-04T00:53:17;2.10;99.90
27890;DHT22;15238;49.082;9.102;2022-12-04T00:55:17;2.10;99.90
27890;DHT22;15238;49.082;9.102;2022-12-04T00:57:18;2.10;99.90
27890;DHT22;15238;49.082;9.102;2022-12-04T00:59:18;2.10;99.90
27890;DHT22;15238;49.082;9.102;2022-12-04T01:01:20;2.10;99.90
27890;DHT22;15238;49.082;9.102;2022-12-04T01:03:21;2.10;99.90
27890;DHT22;15238;49.082;9.102;2022-12-04T01:05:21;2.20;99.90
27890;DHT22;15238;49.082;9.102;2022-12-04T01:07:22;2.10;99.90
27890;DHT22;15238;49.082;9.102;2022-12-04T01:09:22;2.20;99.90
27890;DHT22;15238;49.082;9.102;2022-12-04T01:11:24;2.20;99.90
27890;DHT22;15238;49.082;9.102;2022-12-04T01:13:25;2.20;99.90
27890;DHT22;15238;49.082;9.102;2022-12-04T01:15:26;2.30;99.90
27890;DHT22;15238;49.082;9.102;2022-12-04T01:17:26;2.20;99.90
27890;DHT22;15238;49.082;9.102;2022-12-04T01:19:27;2.30;99.90
27890;DHT22;15238;49.082;9.102;2022-12-04T01:21:28;2.30;99.90
27890;DHT22;15238;49.082;9.102;2022-12-04T01:23:28;2.30;99.90
27890;DHT22;15238;49.082;9.102;2022-12-04T01:25:29;2.30;99.90
27890;DHT22;15238;49.082;9.102;2022-12-04T01:27:29;2.30;99.90
27890;DHT22;15238;49.082;9.102;2022-12-04T01:29:30;2.30;99.90
27890;DHT22;15238;49.082;9.102;2022-12-04T01:31:30;2.30;99.90
27890;DHT22;15238;49.082;9.102;2022-12-04T01:33:32;2.30;99.90
27890;DHT22;15238;49.082;9.102;2022-12-04T01:35:33;2.30;99.90
27890;DHT22;15238;49.082;9.102;2022-12-04T01:37:34;2.30;99.90
27890;DHT22;15238;49.082;9.102;2022-12-04T01:39:35;2.30;99.90
27890;DHT22;15238;49.082;9.102;2022-12-04T01:41:36;2.30;99.90
27890;DHT22;15238;49.082;9.102;2022-12-04T01:43:38;2.30;99.90
27890;DHT22;15238;49.082;9.102;2022-12-04T01:45:44;2.30;99.90
27890;DHT22;15238;49.082;9.102;2022-12-04T01:47:45;2.30;99.90
27890;DHT22;15238;49.082;9.102;2022-12-04T01:49:47;2.30;99.90
27890;DHT22;15238;49.082;9.102;2022-12-04T01:52:35;2.30;99.90
27890;DHT22;15238;49.082;9.102;2022-12-04T01:54:18;2.30;99.90
27890;DHT22;15238;49.082;9.102;2022-12-04T01:56:27;2.30;99.90
27890;DHT22;15238;49.082;9.102;2022-12-04T01:58:33;2.40;99.90
27890;DHT22;15238;49.082;9.102;2022-12-04T02:00:35;2.40;99.90
27890;DHT22;15238;49.082;9.102;2022-12-04T02:02:38;2.40;99.90
27890;DHT22;15238;49.082;9.102;2022-12-04T02:04:40;2.40;99.90
27890;DHT22;15238;49.082;9.102;2022-12-04T02:06:41;2.40;99.90
27890;DHT22;15238;49.082;9.102;2022-12-04T02:08:42;2.40;99.90
27890;DHT22;15238;49.082;9.102;2022-12-04T02:11:12;2.40;99.90
27890;DHT22;15238;49.082;9.102;2022-12-04T02:13:25;2.40;99.90
27890;DHT22;15238;49.082;9.102;2022-12-04T02:15:47;2.40;99.90
27890;DHT22;15238;49.082;9.102;2022-12-04T02:18:08;2.50;99.90
27890;DHT22;15238;49.082;9.102;2022-12-04T02:20:30;2.50;99.90
27890;DHT22;15238;49.082;9.102;2022-12-04T02:25:21;2.40;99.90
27890;DHT22;15238;49.082;9.102;2022-12-04T02:33:59;2.40;99.90
27890;DHT22;15238;49.082;9.102;2022-12-04T02:36:08;2.40;99.90
27890;DHT22;15238;49.082;9.102;2022-12-04T02:38:16;2.40;99.90
27890;DHT22;15238;49.082;9.102;2022-12-04T02:40:30;2.40;99.90
27890;DHT22;15238;49.082;9.102;2022-12-04T02:42:50;2.40;99.90
27890;DHT22;15238;49.082;9.102;2022-12-04T02:44:55;2.50;99.90
27890;DHT22;15238;49.082;9.102;2022-12-04T02:46:59;2.50;99.90
27890;DHT22;15238;49.082;9.102;2022-12-04T02:49:05;2.50;99.90
27890;DHT22;15238;49.082;9.102;2022-12-04T02:51:09;2.40;99.90
27890;DHT22;15238;49.082;9.102;2022-12-04T02:53:19;2.40;99.90
27890;DHT22;15238;49.082;9.102;2022-12-04T02:55:34;2.40;99.90
27890;DHT22;15238;49.082;9.102;2022-12-04T02:57:41;2.40;99.90
27890;DHT22;15238;49.082;9.102;2022-12-04T02:59:44;2.40;99.90
27890;DHT22;15238;49.082;9.102;2022-12-04T03:01:50;2.50;99.90
27890;DHT22;15238;49.082;9.102;2022-12-04T03:03:54;2.50;99.90
27890;DHT22;15238;49.082;9.102;2022-12-04T03:08:05;2.50;99.90
27890;DHT22;15238;49.082;9.102;2022-12-04T03:10:11;2.50;99.90
27890;DHT22;15238;49.082;9.102;2022-12-04T03:12:24;2.50;99.90
27890;DHT22;15238;49.082;9.102;2022-12-04T03:14:36;2.50;99.90
27890;DHT22;15238;49.082;9.102;2022-12-04T03:16:40;2.50;99.90
27890;DHT22;15238;49.082;9.102;2022-12-04T03:18:54;2.50;99.90
27890;DHT22;15238;49.082;9.102;2022-12-04T03:21:00;2.50;99.90
27890;DHT22;15238;49.082;9.102;2022-12-04T03:23:12;2.50;99.90
27890;DHT22;15238;49.082;9.102;2022-12-04T03:25:14;2.50;99.90
27890;DHT22;15238;49.082;9.102;2022-12-04T03:30:03;2.50;99.90
27890;DHT22;15238;49.082;9.102;2022-12-04T03:32:10;2.50;99.90
27890;DHT22;15238;49.082;9.102;2022-12-04T03:34:15;2.60;99.90
27890;DHT22;15238;49.082;9.102;2022-12-04T03:36:27;2.50;99.90
27890;DHT22;15238;49.082;9.102;2022-12-04T03:38:40;2.50;99.90
27890;DHT22;15238;49.082;9.102;2022-12-04T03:41:02;2.50;99.90
27890;DHT22;15238;49.082;9.102;2022-12-04T03:45:28;2.50;99.90
27890;DHT22;15238;49.082;9.102;2022-12-04T03:47:58;2.50;99.90
27890;DHT22;15238;49.082;9.102;2022-12-04T03:50:15;2.50;99.90
27890;DHT22;15238;49.082;9.102;2022-12-04T03:52:24;2.50;99.90
27890;DHT22;15238;49.082;9.102;2022-12-04T03:55:10;2.50;99.90
27890;DHT22;15238;49.082;9.102;2022-12-04T03:57:16;2.50;99.90
27890;DHT22;15238;49.082;9.102;2022-12-04T03:59:22;2.50;99.90
27890;DHT22;15238;49.082;9.102;2022-12-04T04:01:33;2.50;99.90
27890;DHT22;15238;49.082;9.102;2022-12-04T04:03:43;2.50;99.90
27890;DHT22;15238;49.082;9.102;2022-12-04T04:05:49;2.50;99.90
27890;DHT22;15238;49.082;9.102;2022-12-04T04:07:57;2.50;99.90
27890;DHT22;15238;49.082;9.102;2022-12-04T04:10:21;2.60;99.90
27890;DHT22;15238;49.082;9.102;2022-12-04T04:12:26;2.50;99.90
27890;DHT22;15238;49.082;9.102;2022-12-04T04:14:41;2.50;99.90
27890;DHT22;15238;49.082;9.102;2022-12-04T04:17:07;2.50;99.90
27890;DHT22;15238;49.082;9.102;2022-12-04T04:19:29;2.50;99.90
27890;DHT22;15238;49.082;9.102;2022-12-04T04:21:51;2.50;99.90
27890;DHT22;15238;49.082;9.102;2022-12-04T04:24:26;2.50;99.90
27890;DHT22;15238;49.082;9.102;2022-12-04T04:26:32;2.50;99.90
27890;DHT22;15238;49.082;9.102;2022-12-04T04:28:39;2.50;99.90
27890;DHT22;15238;49.082;9.102;2022-12-04T04:30:40;2.50;99.90
27890;DHT22;15238;49.082;9.102;2022-12-04T04:39:49;2.60;99.90
27890;DHT22;15238;49.082;9.102;2022-12-04T04:42:00;2.60;99.90
27890;DHT22;15238;49.082;9.102;2022-12-04T04:44:11;2.70;99.90
27890;DHT22;15238;49.082;9.102;2022-12-04T04:46:22;2.70;99.90
27890;DHT22;15238;49.082;9.102;2022-12-04T04:48:31;2.70;99.90
27890;DHT22;15238;49.082;9.102;2022-12-04T04:50:34;2.70;99.90
27890;DHT22;15238;49.082;9.102;2022-12-04T04:52:36;2.70;99.90
27890;DHT22;15238;49.082;9.102;2022-12-04T04:54:39;2.70;99.90
27890;DHT22;15238;49.082;9.102;2022-12-04T04:56:42;2.80;99.90
27890;DHT22;15238;49.082;9.102;2022-12-04T04:58:43;2.80;99.90
27890;DHT22;15238;49.082;9.102;2022-12-04T05:00:54;2.80;99.90
27890;DHT22;15238;49.082;9.102;2022-12-04T05:02:55;2.80;99.90
27890;DHT22;15238;49.082;9.102;2022-12-04T05:04:56;2.80;99.90
27890;DHT22;15238;49.082;9.102;2022-12-04T05:06:56;2.80;99.90
27890;DHT22;15238;49.082;9.102;2022-12-04T05:08:57;2.80;99.90
27890;DHT22;15238;49.082;9.102;2022-12-04T05:10:58;2.80;99.90
27890;DHT22;15238;49.082;9.102;2022-12-04T05:12:58;2.80;99.90
27890;DHT22;15238;49.082;9.102;2022-12-04T05:14:59;2.80;99.90
27890;DHT22;15238;49.082;9.102;2022-12-04T05:16:59;2.80;99.90
27890;DHT22;15238;49.082;9.102;2022-12-04T05:19:00;2.80;99.90
27890;DHT22;15238;49.082;9.102;2022-12-04T05:21:19;2.80;99.90
27890;DHT22;15238;49.082;9.102;2022-12-04T05:23:20;2.80;99.90
27890;DHT22;15238;49.082;9.102;2022-12-04T05:25:20;2.80;99.90
27890;DHT22;15238;49.082;9.102;2022-12-04T05:27:21;2.90;99.90
27890;DHT22;15238;49.082;9.102;2022-12-04T05:29:22;2.90;99.90
27890;DHT22;15238;49.082;9.102;2022-12-04T05:31:23;2.80;99.90
27890;DHT22;15238;49.082;9.102;2022-12-04T05:33:23;2.80;99.90
27890;DHT22;15238;49.082;9.102;2022-12-04T05:35:24;2.80;99.90
27890;DHT22;15238;49.082;9.102;2022-12-04T05:37:25;2.80;99.90
27890;DHT22;15238;49.082;9.102;2022-12-04T05:39:25;2.80;99.90
27890;DHT22;15238;49.082;9.102;2022-12-04T05:41:26;2.80;99.90
27890;DHT22;15238;49.082;9.102;2022-12-04T05:43:27;2.80;99.90
27890;DHT22;15238;49.082;9.102;2022-12-04T05:45:27;2.80;99.90
27890;DHT22;15238;49.082;9.102;2022-12-04T05:47:28;2.80;99.90
27890;DHT22;15238;49.082;9.102;2022-12-04T05:49:30;2.80;99.90
27890;DHT22;15238;49.082;9.102;2022-12-04T05:51:30;2.80;99.90
27890;DHT22;15238;49.082;9.102;2022-12-04T05:53:31;2.80;99.90
27890;DHT22;15238;49.082;9.102;2022-12-04T05:55:31;2.80;99.90
27890;DHT22;15238;49.082;9.102;2022-12-04T05:57:32;2.80;99.90
27890;DHT22;15238;49.082;9.102;2022-12-04T05:59:33;2.80;99.90
27890;DHT22;15238;49.082;9.102;2022-12-04T06:01:33;2.70;99.90
27890;DHT22;15238;49.082;9.102;2022-12-04T06:03:34;2.70;99.90
27890;DHT22;15238;49.082;9.102;2022-12-04T06:05:34;2.70;99.90
27890;DHT22;15238;49.082;9.102;2022-12-04T06:07:35;2.70;99.90
27890;DHT22;15238;49.082;9.102;2022-12-04T06:09:36;2.70;99.90
27890;DHT22;15238;49.082;9.102;2022-12-04T06:11:38;2.70;99.90
27890;DHT22;15238;49.082;9.102;2022-12-04T06:13:40;2.70;99.90
27890;DHT22;15238;49.082;9.102;2022-12-04T06:15:41;2.70;99.90
27890;DHT22;15238;49.082;9.102;2022-12-04T06:17:42;2.60;99.90
27890;DHT22;15238;49.082;9.102;2022-12-04T06:19:42;2.70;99.90
27890;DHT22;15238;49.082;9.102;2022-12-04T06:21:44;2.70;99.90
27890;DHT22;15238;49.082;9.102;2022-12-04T06:23:45;2.70;99.90
27890;DHT22;15238;49.082;9.102;2022-12-04T06:25:45;2.70;99.90
27890;DHT22;15238;49.082;9.102;2022-12-04T06:27:46;2.70;99.90
27890;DHT22;15238;49.082;9.102;2022-12-04T06:29:46;2.70;99.90
27890;DHT22;15238;49.082;9.102;2022-12-04T06:31:47;2.60;99.90
27890;DHT22;15238;49.082;9.102;2022-12-04T06:33:48;2.70;99.90
27890;DHT22;15238;49.082;9.102;2022-12-04T06:35:57;2.70;99.90
27890;DHT22;15238;49.082;9.102;2022-12-04T06:37:58;2.70;99.90
27890;DHT22;15238;49.082;9.102;2022-12-04T06:39:58;2.70;99.90
27890;DHT22;15238;49.082;9.102;2022-12-04T06:41:59;2.70;99.90
27890;DHT22;15238;49.082;9.102;2022-12-04T06:43:59;2.70;99.90
27890;DHT22;15238;49.082;9.102;2022-12-04T06:46:01;2.70;99.90
27890;DHT22;15238;49.082;9.102;2022-12-04T06:48:02;2.70;99.90
27890;DHT22;15238;49.082;9.102;2022-12-04T06:50:03;2.70;99.90
27890;DHT22;15238;49.082;9.102;2022-12-04T06:52:04;2.60;99.90
27890;DHT22;15238;49.082;9.102;2022-12-04T06:54:04;2.60;99.90
27890;DHT22;15238;49.082;9.102;2022-12-04T06:56:07;2.60;99.90
27890;DHT22;15238;49.082;9.102;2022-12-04T06:58:08;2.70;99.90
27890;DHT22;15238;49.082;9.102;2022-12-04T07:00:09;2.70;99.90
27890;DHT22;15238;49.082;9.102;2022-12-04T07:02:10;2.70;99.90
27890;DHT22;15238;49.082;9.102;2022-12-04T07:04:11;2.60;99.90
27890;DHT22;15238;49.082;9.102;2022-12-04T07:06:22;2.70;99.90
27890;DHT22;15238;49.082;9.102;2022-12-04T07:08:23;2.60;99.90
27890;DHT22;15238;49.082;9.102;2022-12-04T07:10:24;2.60;99.90
27890;DHT22;15238;49.082;9.102;2022-12-04T07:12:25;2.60;99.90
27890;DHT22;15238;49.082;9.102;2022-12-04T07:14:25;2.60;99.90
27890;DHT22;15238;49.082;9.102;2022-12-04T07:16:26;2.60;99.90
27890;DHT22;15238;49.082;9.102;2022-12-04T07:18:28;2.60;99.90
27890;DHT22;15238;49.082;9.102;2022-12-04T07:20:29;2.60;99.90
27890;DHT22;15238;49.082;9.102;2022-12-04T07:22:30;2.60;99.90
27890;DHT22;15238;49.082;9.102;2022-12-04T07:24:30;2.60;99.90
27890;DHT22;15238;49.082;9.102;2022-12-04T07:26:31;2.60;99.90
27890;DHT22;15238;49.082;9.102;2022-12-04T07:28:32;2.60;99.90
27890;DHT22;15238;49.082;9.102;2022-12-04T07:30:33;2.60;99.90
27890;DHT22;15238;49.082;9.102;2022-12-04T07:32:36;2.60;99.90
27890;DHT22;15238;49.082;9.102;2022-12-04T07:34:36;2.60;99.90
27890;DHT22;15238;49.082;9.102;2022-12-04T07:36:38;2.60;99.90
27890;DHT22;15238;49.082;9.102;2022-12-04T07:38:40;2.60;99.90
27890;DHT22;15238;49.082;9.102;2022-12-04T07:40:41;2.60;99.90
27890;DHT22;15238;49.082;9.102;2022-12-04T07:42:41;2.60;99.90
27890;DHT22;15238;49.082;9.102;2022-12-04T07:44:42;2.60;99.90
27890;DHT22;15238;49.082;9.102;2022-12-04T07:46:42;2.60;99.90
27890;DHT22;15238;49.082;9.102;2022-12-04T07:48:43;2.60;99.90
27890;DHT22;15238;49.082;9.102;2022-12-04T07:50:43;2.70;99.90
27890;DHT22;15238;49.082;9.102;2022-12-04T07:52:44;2.70;99.90
27890;DHT22;15238;49.082;9.102;2022-12-04T07:54:44;2.70;99.90
27890;DHT22;15238;49.082;9.102;2022-12-04T07:56:45;2.70;99.90
27890;DHT22;15238;49.082;9.102;2022-12-04T07:58:46;2.70;99.90
27890;DHT22;15238;49.082;9.102;2022-12-04T08:00:47;2.70;99.90
27890;DHT22;15238;49.082;9.102;2022-12-04T08:02:48;2.80;99.90
27890;DHT22;15238;49.082;9.102;2022-12-04T08:04:49;2.80;99.90
27890;DHT22;15238;49.082;9.102;2022-12-04T08:06:49;2.80;99.90
27890;DHT22;15238;49.082;9.102;2022-12-04T08:08:51;2.80;99.90
27890;DHT22;15238;49.082;9.102;2022-12-04T08:10:52;2.80;99.90
27890;DHT22;15238;49.082;9.102;2022-12-04T08:12:52;2.80;99.90
27890;DHT22;15238;49.082;9.102;2022-12-04T08:14:53;2.80;99.90
27890;DHT22;15238;49.082;9.102;2022-12-04T08:16:53;2.90;99.90
27890;DHT22;15238;49.082;9.102;2022-12-04T08:18:54;2.90;99.90
27890;DHT22;15238;49.082;9.102;2022-12-04T08:21:08;2.90;99.90
27890;DHT22;15238;49.082;9.102;2022-12-04T08:23:09;2.90;99.90
27890;DHT22;15238;49.082;9.102;2022-12-04T08:25:09;2.90;99.90
27890;DHT22;15238;49.082;9.102;2022-12-04T08:27:10;3.00;99.90
27890;DHT22;15238;49.082;9.102;2022-12-04T08:29:10;2.90;99.90
27890;DHT22;15238;49.082;9.102;2022-12-04T08:31:23;2.90;99.90
27890;DHT22;15238;49.082;9.102;2022-12-04T08:33:23;2.90;99.90
27890;DHT22;15238;49.082;9.102;2022-12-04T08:35:24;2.90;99.90
27890;DHT22;15238;49.082;9.102;2022-12-04T08:37:24;2.80;99.90
27890;DHT22;15238;49.082;9.102;2022-12-04T08:39:26;2.80;99.90
27890;DHT22;15238;49.082;9.102;2022-12-04T08:41:27;2.80;99.90
27890;DHT22;15238;49.082;9.102;2022-12-04T08:43:28;2.80;99.90
27890;DHT22;15238;49.082;9.102;2022-12-04T08:45:29;2.80;99.90
27890;DHT22;15238;49.082;9.102;2022-12-04T08:47:29;2.80;99.90
27890;DHT22;15238;49.082;9.102;2022-12-04T08:49:30;2.80;99.90
27890;DHT22;15238;49.082;9.102;2022-12-04T08:51:32;2.80;99.90
27890;DHT22;15238;49.082;9.102;2022-12-04T08:53:35;2.80;99.90
27890;DHT22;15238;49.082;9.102;2022-12-04T08:55:36;2.80;99.90
27890;DHT22;15238;49.082;9.102;2022-12-04T08:57:37;2.80;99.90
27890;DHT22;15238;49.082;9.102;2022-12-04T08:59:37;2.80;99.90
27890;DHT22;15238;49.082;9.102;2022-12-04T09:01:38;2.80;99.90
27890;DHT22;15238;49.082;9.102;2022-12-04T09:03:39;2.80;99.90
27890;DHT22;15238;49.082;9.102;2022-12-04T09:05:40;2.80;99.90
27890;DHT22;15238;49.082;9.102;2022-12-04T09:07:40;2.80;99.90
27890;DHT22;15238;49.082;9.102;2022-12-04T09:09:41;2.80;99.90
27890;DHT22;15238;49.082;9.102;2022-12-04T09:11:44;2.90;99.90
27890;DHT22;15238;49.082;9.102;2022-12-04T09:13:45;2.90;99.90
27890;DHT22;15238;49.082;9.102;2022-12-04T09:15:46;2.90;99.90
27890;DHT22;15238;49.082;9.102;2022-12-04T09:17:46;2.90;99.90
27890;DHT22;15238;49.082;9.102;2022-12-04T09:19:47;3.00;99.90
27890;DHT22;15238;49.082;9.102;2022-12-04T09:21:47;3.00;99.90
27890;DHT22;15238;49.082;9.102;2022-12-04T09:23:48;3.10;99.90
27890;DHT22;15238;49.082;9.102;2022-12-04T09:25:49;3.10;99.90
27890;DHT22;15238;49.082;9.102;2022-12-04T09:27:49;3.10;99.90
27890;DHT22;15238;49.082;9.102;2022-12-04T09:29:50;3.10;99.90
27890;DHT22;15238;49.082;9.102;2022-12-04T09:31:50;3.10;99.90
27890;DHT22;15238;49.082;9.102;2022-12-04T09:33:51;3.10;99.90
27890;DHT22;15238;49.082;9.102;2022-12-04T09:35:52;3.20;99.90
27890;DHT22;15238;49.082;9.102;2022-12-04T09:37:53;3.20;99.90
27890;DHT22;15238;49.082;9.102;2022-12-04T09:39:53;3.30;99.90
27890;DHT22;15238;49.082;9.102;2022-12-04T09:44:52;3.30;99.90
27890;DHT22;15238;49.082;9.102;2022-12-04T09:46:59;3.20;99.90
27890;DHT22;15238;49.082;9.102;2022-12-04T09:49:13;3.20;99.90
27890;DHT22;15238;49.082;9.102;2022-12-04T09:51:19;3.20;99.90
27890;DHT22;15238;49.082;9.102;2022-12-04T09:53:28;3.20;99.90
27890;DHT22;15238;49.082;9.102;2022-12-04T09:55:44;3.20;99.90
27890;DHT22;15238;49.082;9.102;2022-12-04T09:57:48;3.30;99.90
27890;DHT22;15238;49.082;9.102;2022-12-04T09:59:50;3.20;99.90
27890;DHT22;15238;49.082;9.102;2022-12-04T10:04:21;3.30;99.90
27890;DHT22;15238;49.082;9.102;2022-12-04T10:06:24;3.40;99.90
27890;DHT22;15238;49.082;9.102;2022-12-04T10:08:40;3.40;99.90
27890;DHT22;15238;49.082;9.102;2022-12-04T10:13:43;3.50;99.90
27890;DHT22;15238;49.082;9.102;2022-12-04T10:16:08;3.40;99.90
27890;DHT22;15238;49.082;9.102;2022-12-04T10:18:40;3.50;99.90
27890;DHT22;15238;49.082;9.102;2022-12-04T10:25:39;3.50;99.90
27890;DHT22;15238;49.082;9.102;2022-12-04T10:30:26;3.60;99.90
27890;DHT22;15238;49.082;9.102;2022-12-04T10:32:31;3.50;99.90
27890;DHT22;15238;49.082;9.102;2022-12-04T10:34:32;3.50;99.90
27890;DHT22;15238;49.082;9.102;2022-12-04T10:36:34;3.50;99.90
27890;DHT22;15238;49.082;9.102;2022-12-04T10:38:45;3.50;99.90
27890;DHT22;15238;49.082;9.102;2022-12-04T10:40:50;3.60;99.90
27890;DHT22;15238;49.082;9.102;2022-12-04T10:43:14;3.50;99.90
27890;DHT22;15238;49.082;9.102;2022-12-04T10:45:17;3.50;99.90
27890;DHT22;15238;49.082;9.102;2022-12-04T10:47:19;3.60;99.90
27890;DHT22;15238;49.082;9.102;2022-12-04T10:49:26;3.60;99.90
27890;DHT22;15238;49.082;9.102;2022-12-04T10:51:37;3.60;99.90
27890;DHT22;15238;49.082;9.102;2022-12-04T10:53:38;3.60;99.90
27890;DHT22;15238;49.082;9.102;2022-12-04T10:55:38;3.40;99.90
27890;DHT22;15238;49.082;9.102;2022-12-04T10:57:44;3.40;99.90
27890;DHT22;15238;49.082;9.102;2022-12-04T10:59:53;3.40;99.90
27890;DHT22;15238;49.082;9.102;2022-12-04T11:04:08;3.50;99.90
27890;DHT22;15238;49.082;9.102;2022-12-04T11:06:09;3.50;99.90
27890;DHT22;15238;49.082;9.102;2022-12-04T11:08:28;3.60;99.90
27890;DHT22;15238;49.082;9.102;2022-12-04T11:10:36;3.60;99.90
27890;DHT22;15238;49.082;9.102;2022-12-04T11:12:37;3.70;99.90
27890;DHT22;15238;49.082;9.102;2022-12-04T11:14:38;3.80;99.90
27890;DHT22;15238;49.082;9.102;2022-12-04T11:16:41;3.80;99.90
27890;DHT22;15238;49.082;9.102;2022-12-04T11:18:48;3.80;99.90
27890;DHT22;15238;49.082;9.102;2022-12-04T11:20:57;3.80;99.90
27890;DHT22;15238;49.082;9.102;2022-12-04T11:22:59;3.90;99.90
27890;DHT22;15238;49.082;9.102;2022-12-04T11:24:59;3.90;99.90
27890;DHT22;15238;49.082;9.102;2022-12-04T11:27:02;3.90;99.90
27890;DHT22;15238;49.082;9.102;2022-12-04T11:29:04;3.90;99.90
27890;DHT22;15238;49.082;9.102;2022-12-04T11:31:07;3.90;99.90
27890;DHT22;15238;49.082;9.102;2022-12-04T11:33:27;4.00;99.90
27890;DHT22;15238;49.082;9.102;2022-12-04T11:35:29;4.00;99.90
27890;DHT22;15238;49.082;9.102;2022-12-04T11:37:32;4.00;99.90
27890;DHT22;15238;49.082;9.102;2022-12-04T11:39:36;3.90;99.90
27890;DHT22;15238;49.082;9.102;2022-12-04T11:41:38;4.00;99.90
27890;DHT22;15238;49.082;9.102;2022-12-04T11:43:47;3.90;99.90
27890;DHT22;15238;49.082;9.102;2022-12-04T11:45:52;3.90;99.90
27890;DHT22;15238;49.082;9.102;2022-12-04T11:47:58;3.90;99.90
27890;DHT22;15238;49.082;9.102;2022-12-04T11:55:22;3.90;99.90
27890;DHT22;15238;49.082;9.102;2022-12-04T11:57:42;3.90;99.90
27890;DHT22;15238;49.082;9.102;2022-12-04T12:00:12;3.90;99.90
27890;DHT22;15238;49.082;9.102;2022-12-04T12:07:37;3.80;99.90
27890;DHT22;15238;49.082;9.102;2022-12-04T12:10:02;3.80;99.90
27890;DHT22;15238;49.082;9.102;2022-12-04T12:16:43;4.00;99.90
27890;DHT22;15238;49.082;9.102;2022-12-04T12:32:43;4.00;99.90
27890;DHT22;15238;49.082;9.102;2022-12-04T12:34:46;4.00;99.90
27890;DHT22;15238;49.082;9.102;2022-12-04T12:36:49;4.00;99.90
27890;DHT22;15238;49.082;9.102;2022-12-04T12:39:01;4.00;99.90
27890;DHT22;15238;49.082;9.102;2022-12-04T12:41:09;4.10;99.90
27890;DHT22;15238;49.082;9.102;2022-12-04T12:45:26;4.10;99.90
27890;DHT22;15238;49.082;9.102;2022-12-04T12:47:31;4.10;99.90
27890;DHT22;15238;49.082;9.102;2022-12-04T12:49:40;4.10;99.90
27890;DHT22;15238;49.082;9.102;2022-12-04T12:51:50;4.20;99.90
27890;DHT22;15238;49.082;9.102;2022-12-04T12:53:54;4.10;99.90
27890;DHT22;15238;49.082;9.102;2022-12-04T12:55:59;4.10;99.90
27890;DHT22;15238;49.082;9.102;2022-12-04T12:58:22;4.10;99.90
27890;DHT22;15238;49.082;9.102;2022-12-04T13:00:24;4.20;99.90
27890;DHT22;15238;49.082;9.102;2022-12-04T13:02:46;4.20;99.90
27890;DHT22;15238;49.082;9.102;2022-12-04T13:04:50;4.20;99.90
27890;DHT22;15238;49.082;9.102;2022-12-04T13:09:20;4.20;99.90
27890;DHT22;15238;49.082;9.102;2022-12-04T13:11:25;4.20;99.90
27890;DHT22;15238;49.082;9.102;2022-12-04T13:13:30;4.10;99.90
27890;DHT22;15238;49.082;9.102;2022-12-04T13:15:44;4.10;99.90
27890;DHT22;15238;49.082;9.102;2022-12-04T13:17:49;4.10;99.90
27890;DHT22;15238;49.082;9.102;2022-12-04T13:19:53;4.10;99.90
27890;DHT22;15238;49.082;9.102;2022-12-04T13:26:38;4.20;99.90
27890;DHT22;15238;49.082;9.102;2022-12-04T13:28:46;4.20;99.90
27890;DHT22;15238;49.082;9.102;2022-12-04T13:37:43;4.30;99.90
27890;DHT22;15238;49.082;9.102;2022-12-04T13:42:25;4.30;99.90
27890;DHT22;15238;49.082;9.102;2022-12-04T13:44:27;4.30;99.90
27890;DHT22;15238;49.082;9.102;2022-12-04T13:46:30;4.30;99.90
27890;DHT22;15238;49.082;9.102;2022-12-04T13:48:35;4.30;99.90
27890;DHT22;15238;49.082;9.102;2022-12-04T13:50:38;4.20;99.90
27890;DHT22;15238;49.082;9.102;2022-12-04T13:52:40;4.20;99.90
27890;DHT22;15238;49.082;9.102;2022-12-04T13:54:41;4.10;99.90
27890;DHT22;15238;49.082;9.102;2022-12-04T13:56:45;4.10;99.90
27890;DHT22;15238;49.082;9.102;2022-12-04T13:58:46;4.10;99.90
27890;DHT22;15238;49.082;9.102;2022-12-04T14:00:46;4.00;99.90
27890;DHT22;15238;49.082;9.102;2022-12-04T14:02:52;4.00;99.90
27890;DHT22;15238;49.082;9.102;2022-12-04T14:05:11;4.00;99.90
27890;DHT22;15238;49.082;9.102;2022-12-04T14:09:39;4.00;99.90
27890;DHT22;15238;49.082;9.102;2022-12-04T14:11:45;3.90;99.90
27890;DHT22;15238;49.082;9.102;2022-12-04T14:13:50;3.90;99.90
27890;DHT22;15238;49.082;9.102;2022-12-04T14:16:03;3.90;99.90
27890;DHT22;15238;49.082;9.102;2022-12-04T14:20:25;3.90;99.90
27890;DHT22;15238;49.082;9.102;2022-12-04T14:24:37;3.90;99.90
27890;DHT22;15238;49.082;9.102;2022-12-04T14:26:47;3.80;99.90
27890;DHT22;15238;49.082;9.102;2022-12-04T14:28:49;3.80;99.90
27890;DHT22;15238;49.082;9.102;2022-12-04T14:33:20;3.90;99.90
27890;DHT22;15238;49.082;9.102;2022-12-04T14:35:22;3.90;99.90
27890;DHT22;15238;49.082;9.102;2022-12-04T14:37:35;3.80;99.90
27890;DHT22;15238;49.082;9.102;2022-12-04T14:39:41;3.90;99.90
27890;DHT22;15238;49.082;9.102;2022-12-04T14:41:43;3.80;99.90
27890;DHT22;15238;49.082;9.102;2022-12-04T14:43:44;3.80;99.90
27890;DHT22;15238;49.082;9.102;2022-12-04T14:45:56;3.80;99.90
27890;DHT22;15238;49.082;9.102;2022-12-04T14:50:42;3.90;99.90
27890;DHT22;15238;49.082;9.102;2022-12-04T14:53:17;3.90;99.90
27890;DHT22;15238;49.082;9.102;2022-12-04T14:59:51;3.90;99.90
27890;DHT22;15238;49.082;9.102;2022-12-04T15:01:53;3.80;99.90
27890;DHT22;15238;49.082;9.102;2022-12-04T15:03:56;3.80;99.90
27890;DHT22;15238;49.082;9.102;2022-12-04T15:06:07;3.70;99.90